Time;durP1;ratioP1;P1;durP2;ratioP2;P2;SDS_P1;SDS_P2;PMS_P1;PMS_P2;Temp;Humidity;BMP_temperature;BMP_pressure;BME280_temperature;BME280_humidity;BME280_pressure;Samples;Min_cycle;Max_cycle;Signal;HPM_P1;HPM_P2
2021/07/14 00:01:02;;;;;;;9.43;3.25;;;41.70;28.40;;;;;;5111417;27;20079;-67
2021/07/14 00:03:28;;;;;;;9.68;3.90;;;41.60;28.00;;;;;;5111349;28;20072;-66
2021/07/14 00:05:55;;;;;;;8.77;3.20;;;41.70;27.80;;;;;;5111625;27;20083;-66
2021/07/14 00:08:22;;;;;;;14.50;3.35;;;41.60;28.00;;;;;;5111689;28;20096;-66
2021/07/14 00:10:48;;;;;;;7.43;3.10;;;41.40;28.00;;;;;;5110439;28;20072;-66
2021/07/14 00:24:05;;;;;;;10.98;3.30;;;41.30;28.30;;;;;;5112976;28;20523;-67
2021/07/14 00:26:32;;;;;;;9.30;3.20;;;41.30;28.50;;;;;;5105500;28;20075;-66
2021/07/14 00:29:01;;;;;;;5.90;3.22;;;41.40;28.40;;;;;;5110900;28;20273;-66
2021/07/14 00:31:27;;;;;;;7.60;3.47;;;41.30;28.10;;;;;;5112343;28;20124;-65
2021/07/14 00:33:53;;;;;;;9.77;3.70;;;41.20;27.80;;;;;;5110827;28;20085;-67
2021/07/14 00:36:20;;;;;;;11.25;3.60;;;41.30;28.30;;;;;;5112188;28;20044;-66
2021/07/14 00:38:46;;;;;;;9.25;3.45;;;41.20;28.80;;;;;;5112038;28;20168;-67
2021/07/14 00:41:13;;;;;;;9.70;2.90;;;41.10;29.60;;;;;;5110935;28;20076;-67
2021/07/14 00:43:39;;;;;;;14.55;3.47;;;40.90;29.10;;;;;;5112106;28;21242;-66
2021/07/14 00:46:22;;;;;;;11.63;3.13;;;40.80;29.30;;;;;;5110523;28;20068;-65
2021/07/14 00:48:50;;;;;;;11.43;3.33;;;40.90;29.50;;;;;;5111732;28;20091;-66
2021/07/14 00:51:18;;;;;;;7.85;2.97;;;40.80;29.00;;;;;;5111204;28;20440;-66
2021/07/14 00:53:45;;;;;;;9.43;2.90;;;40.90;28.90;;;;;;5110737;28;20068;-66
2021/07/14 00:56:12;;;;;;;7.68;3.17;;;40.80;28.90;;;;;;5113649;28;20072;-65
2021/07/14 00:58:38;;;;;;;11.23;2.95;;;40.70;28.90;;;;;;5110519;28;20072;-66
2021/07/14 01:01:05;;;;;;;10.88;3.30;;;40.50;28.90;;;;;;5109795;28;20072;-67
2021/07/14 01:03:53;;;;;;;8.68;2.95;;;40.40;29.10;;;;;;5112057;28;20068;-67
2021/07/14 01:06:57;;;;;;;5.95;2.90;;;40.30;29.50;;;;;;5110343;28;20072;-67
2021/07/14 01:09:50;;;;;;;11.10;2.92;;;40.20;29.90;;;;;;5094915;28;20445;-68
2021/07/14 01:12:44;;;;;;;9.88;3.13;;;40.20;29.80;;;;;;5080557;28;20125;-67
2021/07/14 01:15:21;;;;;;;14.30;3.50;;;40.20;30.10;;;;;;5109710;28;20091;-66
2021/07/14 01:17:59;;;;;;;11.52;3.15;;;40.00;30.90;;;;;;5109701;28;20067;-65
2021/07/14 01:20:44;;;;;;;12.80;3.30;;;39.90;31.40;;;;;;5110566;28;20075;-67
2021/07/14 01:23:22;;;;;;;9.68;2.65;;;39.90;31.50;;;;;;5110181;28;21299;-66
2021/07/14 01:26:04;;;;;;;11.13;3.05;;;39.70;31.60;;;;;;5111790;28;20080;-67
2021/07/14 01:28:35;;;;;;;12.93;3.30;;;39.50;31.70;;;;;;5101310;28;20102;-65
2021/07/14 01:31:02;;;;;;;13.23;3.42;;;39.40;31.60;;;;;;5109534;28;20072;-66
2021/07/14 01:33:35;;;;;;;16.38;3.30;;;39.30;31.60;;;;;;5112800;28;20088;-66
2021/07/14 01:36:05;;;;;;;15.95;3.30;;;39.30;31.40;;;;;;5115244;27;21615;-65
2021/07/14 01:38:35;;;;;;;18.00;4.07;;;39.20;31.40;;;;;;5113616;27;20115;-64
2021/07/14 01:41:03;;;;;;;14.60;3.15;;;39.20;31.30;;;;;;5114524;27;20104;-66
2021/07/14 01:43:37;;;;;;;16.40;3.28;;;39.20;31.40;;;;;;5115174;27;20080;-66
2021/07/14 01:46:07;;;;;;;10.25;3.22;;;39.00;30.70;;;;;;5113757;27;20439;-67
2021/07/14 01:48:40;;;;;;;10.73;3.53;;;39.00;31.00;;;;;;5114570;28;20096;-66
2021/07/14 01:51:07;;;;;;;11.13;2.80;;;39.10;30.50;;;;;;5114783;27;20201;-67
2021/07/14 01:53:37;;;;;;;11.60;3.47;;;39.00;29.60;;;;;;5114951;27;20463;-66
2021/07/14 01:56:09;;;;;;;16.90;3.72;;;38.90;30.00;;;;;;5114575;27;20068;-66
2021/07/14 01:58:42;;;;;;;14.38;3.55;;;38.90;29.90;;;;;;5113171;27;20080;-68
2021/07/14 02:01:12;;;;;;;15.43;3.15;;;38.90;29.70;;;;;;5114544;27;20097;-66
2021/07/14 02:04:29;;;;;;;36.35;4.88;;;38.70;29.90;;;;;;5114710;27;20099;-67
2021/07/14 02:06:31;;;;;;;12.77;3.22;;;38.60;30.00;;;;;;5114798;27;20121;-67
2021/07/14 02:08:57;;;;;;;15.48;3.30;;;38.60;31.00;;;;;;5113528;27;20100;-67
2021/07/14 02:11:26;;;;;;;12.40;3.25;;;38.50;31.70;;;;;;5114194;27;20068;-67
2021/07/14 02:13:53;;;;;;;20.15;2.92;;;38.50;31.70;;;;;;5113234;27;20099;-67
2021/07/14 02:16:22;;;;;;;23.20;3.53;;;38.30;31.10;;;;;;5114636;27;20145;-66
2021/07/14 02:18:54;;;;;;;10.63;2.70;;;38.30;31.90;;;;;;5112449;27;20536;-67
2021/07/14 02:21:22;;;;;;;15.00;3.50;;;38.10;32.70;;;;;;5113921;27;20076;-66
2021/07/14 02:23:49;;;;;;;11.73;3.33;;;38.00;33.20;;;;;;5113614;27;20099;-69
2021/07/14 02:26:16;;;;;;;21.73;4.15;;;38.00;33.50;;;;;;5115073;27;20435;-66
2021/07/14 02:28:43;;;;;;;12.27;3.50;;;37.90;34.10;;;;;;5113881;27;20120;-67
2021/07/14 02:31:09;;;;;;;16.05;4.25;;;37.80;34.50;;;;;;5114285;27;20429;-66
2021/07/14 02:33:36;;;;;;;13.32;3.90;;;37.70;35.40;;;;;;5113809;27;20088;-68
2021/07/14 02:36:06;;;;;;;26.25;8.32;;;37.60;36.30;;;;;;5114153;27;20635;-67
2021/07/14 02:38:42;;;;;;;17.67;5.80;;;37.60;37.10;;;;;;5113429;27;20112;-68
2021/07/14 02:41:27;;;;;;;22.92;6.13;;;37.40;38.00;;;;;;5113510;27;20072;-66
2021/07/14 02:44:08;;;;;;;18.02;5.32;;;37.30;38.30;;;;;;5104095;27;20102;-65
2021/07/14 02:46:42;;;;;;;24.45;5.88;;;37.20;38.60;;;;;;5113980;27;20543;-65
2021/07/14 02:49:12;;;;;;;16.63;5.35;;;37.10;39.00;;;;;;5113913;27;20182;-67
2021/07/14 02:51:39;;;;;;;19.10;7.07;;;37.10;39.30;;;;;;5111680;27;20064;-67
2021/07/14 02:54:12;;;;;;;16.20;5.28;;;37.00;39.40;;;;;;5114118;27;20503;-66
2021/07/14 02:56:41;;;;;;;17.50;4.72;;;36.90;39.40;;;;;;5104305;27;20164;-67
2021/07/14 02:59:10;;;;;;;20.60;4.60;;;36.80;39.50;;;;;;5114782;27;20145;-66
2021/07/14 03:01:43;;;;;;;19.42;4.15;;;36.80;40.00;;;;;;5113337;27;20156;-67
2021/07/14 03:04:11;;;;;;;19.73;4.40;;;36.70;39.80;;;;;;5113779;27;20075;-67
2021/07/14 03:06:38;;;;;;;19.00;4.10;;;36.70;39.90;;;;;;5110649;28;20133;-66
2021/07/14 03:09:06;;;;;;;16.98;3.65;;;36.60;39.20;;;;;;5113034;27;20091;-67
2021/07/14 03:11:40;;;;;;;26.80;4.47;;;36.50;38.80;;;;;;5105644;27;20163;-66
2021/07/14 03:14:10;;;;;;;12.77;3.45;;;36.50;38.50;;;;;;5113423;27;20092;-67
2021/07/14 03:16:37;;;;;;;13.35;3.60;;;36.50;38.50;;;;;;5113824;27;20076;-67
2021/07/14 03:19:05;;;;;;;9.23;3.40;;;36.40;37.60;;;;;;5112536;27;20477;-66
2021/07/14 03:21:33;;;;;;;9.90;3.63;;;36.40;36.90;;;;;;5112353;27;20486;-67
2021/07/14 03:24:07;;;;;;;10.07;3.42;;;36.30;36.30;;;;;;5112589;27;20069;-67
2021/07/14 03:26:35;;;;;;;13.10;3.70;;;36.20;36.30;;;;;;5112722;27;20073;-67
2021/07/14 03:29:03;;;;;;;12.23;3.65;;;36.20;36.60;;;;;;5111301;27;20096;-66
2021/07/14 03:31:30;;;;;;;13.15;5.55;;;36.20;36.70;;;;;;5111405;27;20075;-66
2021/07/14 03:33:59;;;;;;;12.25;3.97;;;36.10;37.40;;;;;;5113650;27;20076;-66
2021/07/14 03:36:26;;;;;;;19.20;3.70;;;36.10;38.10;;;;;;5116728;27;20133;-68
2021/07/14 03:38:53;;;;;;;14.95;3.75;;;36.00;38.60;;;;;;5116929;27;20116;-66
2021/07/14 03:41:21;;;;;;;10.55;3.85;;;35.90;38.90;;;;;;5116308;27;20080;-67
2021/07/14 03:43:49;;;;;;;13.80;3.30;;;35.70;39.50;;;;;;5111607;28;20507;-67
2021/07/14 03:46:17;;;;;;;17.50;3.58;;;35.70;40.00;;;;;;5112648;28;20076;-67
2021/07/14 03:48:45;;;;;;;17.67;3.55;;;35.60;40.80;;;;;;5105594;27;20107;-67
2021/07/14 03:51:17;;;;;;;10.43;3.28;;;35.60;41.10;;;;;;5106771;27;20418;-68
2021/07/14 03:53:45;;;;;;;14.18;3.70;;;35.60;41.50;;;;;;5111534;28;20103;-68
2021/07/14 03:56:13;;;;;;;84.40;5.75;;;35.50;41.60;;;;;;5115326;27;20448;-67
2021/07/14 03:58:43;;;;;;;18.23;3.38;;;35.40;41.90;;;;;;5111701;27;20087;-66
2021/07/14 04:01:17;;;;;;;17.58;3.13;;;35.40;42.20;;;;;;5113634;27;20072;-67
2021/07/14 04:03:44;;;;;;;12.23;3.42;;;35.30;42.50;;;;;;5112705;27;20127;-67
2021/07/14 04:06:14;;;;;;;8.55;3.03;;;35.20;42.80;;;;;;5112564;27;20091;-66
2021/07/14 04:08:45;;;;;;;15.65;3.42;;;35.10;43.30;;;;;;5111234;28;20096;-67
2021/07/14 04:11:15;;;;;;;17.50;3.53;;;35.00;43.70;;;;;;5112848;27;20125;-66
2021/07/14 04:13:43;;;;;;;24.00;3.80;;;34.90;44.20;;;;;;5111467;27;20072;-67
2021/07/14 04:16:10;;;;;;;11.00;3.78;;;34.80;44.30;;;;;;5112155;28;20159;-66
2021/07/14 04:18:37;;;;;;;22.67;4.07;;;34.80;44.70;;;;;;5111678;28;20073;-66
2021/07/14 04:21:03;;;;;;;14.85;3.47;;;34.80;45.40;;;;;;5112747;28;20077;-67
2021/07/14 04:23:30;;;;;;;19.88;4.50;;;34.70;46.10;;;;;;5112431;28;20079;-66
2021/07/14 04:25:57;;;;;;;19.85;4.50;;;34.70;46.50;;;;;;5112319;28;20060;-65
2021/07/14 04:28:25;;;;;;;17.20;4.50;;;34.70;46.90;;;;;;5113247;27;20453;-65
2021/07/14 04:30:51;;;;;;;22.92;4.90;;;34.60;47.10;;;;;;5115269;28;20107;-66
2021/07/14 04:33:18;;;;;;;22.15;5.07;;;34.60;47.40;;;;;;5112339;28;20075;-67
2021/07/14 04:35:44;;;;;;;21.98;6.20;;;34.50;47.60;;;;;;5108692;28;20539;-67
2021/07/14 04:38:11;;;;;;;17.70;5.93;;;34.40;47.90;;;;;;5112265;28;20123;-66
2021/07/14 04:40:37;;;;;;;22.30;6.93;;;34.30;48.30;;;;;;5102739;28;20083;-67
2021/07/14 04:43:05;;;;;;;28.55;6.10;;;34.30;48.60;;;;;;5103810;28;20080;-67
2021/07/14 04:45:31;;;;;;;25.75;6.30;;;34.30;48.90;;;;;;5113183;28;20075;-67
2021/07/14 04:47:58;;;;;;;19.23;6.40;;;34.10;49.00;;;;;;5108143;28;20119;-67
2021/07/14 04:50:28;;;;;;;22.15;7.00;;;34.10;48.40;;;;;;5101270;28;20072;-68
2021/07/14 04:52:55;;;;;;;25.00;6.70;;;34.10;48.40;;;;;;5111473;28;20087;-67
2021/07/14 04:55:22;;;;;;;21.50;7.15;;;34.10;48.70;;;;;;5106439;28;20129;-67
2021/07/14 04:57:51;;;;;;;34.22;7.10;;;34.00;48.20;;;;;;5113123;28;20151;-69
2021/07/14 05:00:18;;;;;;;19.58;6.95;;;34.10;48.10;;;;;;5111823;28;20432;-67
2021/07/14 05:02:45;;;;;;;21.25;6.30;;;34.00;48.10;;;;;;5111686;28;20075;-66
2021/07/14 05:05:16;;;;;;;17.50;4.65;;;34.00;48.40;;;;;;5111671;28;20083;-68
2021/07/14 05:07:44;;;;;;;17.63;4.53;;;34.00;48.50;;;;;;5113577;28;20091;-66
2021/07/14 05:10:11;;;;;;;15.68;5.40;;;33.90;49.00;;;;;;5113257;27;20441;-65
2021/07/14 05:12:38;;;;;;;13.77;5.35;;;33.80;48.80;;;;;;5116206;27;20072;-67
2021/07/14 05:15:05;;;;;;;16.35;5.30;;;33.90;48.80;;;;;;5115411;27;20585;-65
2021/07/14 05:17:31;;;;;;;19.77;5.93;;;33.80;48.80;;;;;;5108667;27;20076;-67
2021/07/14 05:19:58;;;;;;;20.88;6.05;;;33.80;48.70;;;;;;5117175;27;20106;-68
2021/07/14 05:22:25;;;;;;;27.50;6.60;;;33.80;48.80;;;;;;5115692;28;20082;-67
2021/07/14 05:24:52;;;;;;;22.00;7.28;;;33.80;49.50;;;;;;5115857;27;20125;-67
2021/07/14 05:27:19;;;;;;;25.33;7.35;;;33.80;49.10;;;;;;5102296;22;20565;-68
2021/07/14 05:29:45;;;;;;;19.10;6.00;;;33.70;49.50;;;;;;5058485;28;20138;-68
2021/07/14 05:32:12;;;;;;;20.65;6.18;;;33.70;49.30;;;;;;5074103;28;20084;-66
2021/07/14 05:34:38;;;;;;;17.65;5.32;;;33.70;49.40;;;;;;5072985;28;20484;-67
2021/07/14 05:37:05;;;;;;;18.88;5.60;;;33.70;49.20;;;;;;5073752;28;20080;-66
2021/07/14 05:39:31;;;;;;;16.67;4.97;;;33.70;49.10;;;;;;5072242;28;20527;-67
2021/07/14 05:41:58;;;;;;;17.95;5.47;;;33.70;48.90;;;;;;5073793;28;20103;-67
2021/07/14 05:44:24;;;;;;;17.27;4.43;;;33.70;49.20;;;;;;5074106;28;20160;-64
2021/07/14 05:46:52;;;;;;;16.85;5.45;;;33.70;49.10;;;;;;5071470;28;20107;-65
2021/07/14 05:49:21;;;;;;;21.63;4.93;;;33.70;48.80;;;;;;5072508;28;20414;-64
2021/07/14 05:51:48;;;;;;;11.27;3.30;;;33.80;48.80;;;;;;5073333;28;20075;-65
2021/07/14 05:54:15;;;;;;;12.77;3.42;;;33.80;48.80;;;;;;5072982;28;20089;-65
2021/07/14 05:56:42;;;;;;;12.85;3.70;;;33.80;48.50;;;;;;5074055;28;20418;-65
2021/07/14 05:59:08;;;;;;;8.70;3.90;;;33.80;48.90;;;;;;5070743;28;20073;-64
2021/07/14 06:01:37;;;;;;;19.77;4.45;;;33.80;48.60;;;;;;5072661;28;20081;-64
2021/07/14 06:04:04;;;;;;;17.52;4.95;;;33.80;48.40;;;;;;5072197;28;20118;-65
2021/07/14 06:06:32;;;;;;;15.20;4.78;;;33.80;47.90;;;;;;5072152;28;20077;-64
2021/07/14 06:08:59;;;;;;;19.15;6.70;;;33.80;47.60;;;;;;5072342;28;20120;-64
2021/07/14 06:11:26;;;;;;;23.67;6.43;;;33.80;47.70;;;;;;5072934;28;20080;-64
2021/07/14 06:13:53;;;;;;;23.45;7.25;;;33.80;47.00;;;;;;5073534;28;20069;-64
2021/07/14 06:16:19;;;;;;;29.15;8.57;;;33.70;47.20;;;;;;5073334;28;20081;-65
2021/07/14 06:18:46;;;;;;;24.27;7.65;;;33.70;45.50;;;;;;5071002;28;20134;-64
2021/07/14 06:21:12;;;;;;;22.00;6.60;;;33.80;65.60;;;;;;5071796;28;20526;-64
2021/07/14 06:23:39;;;;;;;19.63;5.63;;;33.70;46.50;;;;;;5073217;28;20487;-65
2021/07/14 06:26:06;;;;;;;17.88;4.53;;;33.70;46.20;;;;;;5071972;28;20101;-65
2021/07/14 06:28:32;;;;;;;12.30;3.42;;;33.70;71.80;;;;;;5059943;28;20092;-66
2021/07/14 06:30:59;;;;;;;13.32;3.47;;;33.50;46.80;;;;;;5057775;28;20073;-65
2021/07/14 06:33:26;;;;;;;14.52;3.45;;;33.70;81.70;;;;;;5072486;28;20096;-67
2021/07/14 06:35:54;;;;;;;8.98;3.45;;;33.50;49.70;;;;;;5072911;28;20060;-67
2021/07/14 06:38:20;;;;;;;7.82;2.83;;;33.50;48.20;;;;;;5071361;28;20152;-65
2021/07/14 06:40:48;;;;;;;11.65;2.70;;;33.60;66.30;;;;;;5072050;28;20127;-66
2021/07/14 06:43:16;;;;;;;12.82;3.25;;;33.40;52.20;;;;;;5072483;28;20058;-66
2021/07/14 06:45:49;;;;;;;12.70;3.10;;;33.50;51.20;;;;;;5071578;28;20080;-66
2021/07/14 06:48:16;;;;;;;9.43;2.95;;;33.40;52.40;;;;;;5068537;28;20085;-66
2021/07/14 06:50:43;;;;;;;9.98;2.80;;;33.30;53.20;;;;;;5057840;28;20130;-66
2021/07/14 06:53:10;;;;;;;13.48;3.13;;;33.20;53.90;;;;;;5071951;28;20560;-66
2021/07/14 06:55:36;;;;;;;11.45;2.38;;;33.20;54.90;;;;;;5072367;28;20533;-67
2021/07/14 06:58:03;;;;;;;9.10;3.00;;;33.10;55.80;;;;;;5070733;28;20099;-66
2021/07/14 07:00:34;;;;;;;13.07;3.38;;;33.00;56.20;;;;;;5071102;28;20084;-67
2021/07/14 07:03:02;;;;;;;7.95;2.67;;;33.10;56.50;;;;;;5072183;28;20061;-67
2021/07/14 07:05:28;;;;;;;9.30;3.10;;;33.00;56.60;;;;;;5071849;28;20117;-67
2021/07/14 07:07:55;;;;;;;19.85;3.75;;;32.90;57.00;;;;;;5057897;28;20127;-67
2021/07/14 07:10:21;;;;;;;11.57;3.83;;;32.80;57.30;;;;;;5071896;28;20073;-67
2021/07/14 07:12:48;;;;;;;16.67;3.65;;;32.90;89.50;;;;;;5072627;28;20155;-67
2021/07/14 07:15:18;;;;;;;13.27;3.95;;;32.70;58.10;;;;;;5071757;28;20133;-67
2021/07/14 07:17:45;;;;;;;13.00;3.55;;;32.40;94.90;;;;;;5070918;28;20541;-66
2021/07/14 07:20:14;;;;;;;13.35;3.38;;;32.60;97.60;;;;;;5071169;28;20086;-66
2021/07/14 07:22:42;;;;;;;10.98;3.83;;;32.60;58.90;;;;;;5070834;28;20080;-66
2021/07/14 07:25:09;;;;;;;13.73;3.53;;;32.50;74.10;;;;;;5071303;28;20036;-66
2021/07/14 07:27:37;;;;;;;14.63;4.15;;;32.20;84.80;;;;;;5070057;28;20170;-66
2021/07/14 07:30:08;;;;;;;11.98;3.80;;;32.40;96.60;;;;;;5071649;28;20065;-66
2021/07/14 07:32:35;;;;;;;15.85;4.00;;;32.40;59.90;;;;;;5071052;28;20105;-67
2021/07/14 07:35:02;;;;;;;14.27;3.70;;;32.40;74.70;;;;;;5071592;28;20069;-66
2021/07/14 07:37:28;;;;;;;15.75;4.30;;;32.40;60.40;;;;;;5070184;28;20068;-66
2021/07/14 07:39:55;;;;;;;14.40;3.92;;;32.40;60.30;;;;;;5053614;28;20081;-65
2021/07/14 07:42:21;;;;;;;17.55;3.60;;;32.30;60.90;;;;;;5070929;28;20104;-66
2021/07/14 07:44:48;;;;;;;13.38;3.60;;;32.30;61.00;;;;;;5071206;28;20162;-66
2021/07/14 07:47:16;;;;;;;13.32;3.58;;;32.30;61.10;;;;;;5070203;28;20105;-68
2021/07/14 07:49:45;;;;;;;10.23;3.70;;;32.20;61.30;;;;;;5071677;28;20126;-68
2021/07/14 07:52:18;;;;;;;17.02;3.80;;;32.10;61.80;;;;;;5039229;28;20069;-66
2021/07/14 07:54:45;;;;;;;11.73;3.80;;;32.00;62.10;;;;;;5071615;28;20497;-66
2021/07/14 07:57:14;;;;;;;15.10;3.70;;;32.10;62.50;;;;;;5070604;28;20132;-66
2021/07/14 07:59:41;;;;;;;16.55;3.72;;;32.00;62.60;;;;;;5074247;28;20148;-67
2021/07/14 08:02:08;;;;;;;12.43;3.80;;;32.00;62.80;;;;;;5076581;28;20081;-66
2021/07/14 08:04:34;;;;;;;16.77;4.03;;;31.90;63.10;;;;;;5058243;28;20069;-66
2021/07/14 08:07:01;;;;;;;13.00;3.58;;;32.00;63.10;;;;;;5074613;28;20084;-67
2021/07/14 08:09:28;;;;;;;12.95;3.38;;;31.90;63.40;;;;;;5073775;28;20096;-66
2021/07/14 08:11:54;;;;;;;12.10;3.72;;;31.80;63.60;;;;;;5071957;28;20076;-66
2021/07/14 08:14:20;;;;;;;13.95;3.30;;;31.80;63.80;;;;;;5072373;28;20130;-66
2021/07/14 08:16:47;;;;;;;11.75;3.92;;;31.80;63.60;;;;;;5071614;28;20077;-66
2021/07/14 08:19:14;;;;;;;16.45;4.18;;;31.80;64.00;;;;;;5055744;28;20155;-66
2021/07/14 08:21:40;;;;;;;13.43;3.63;;;31.70;64.20;;;;;;5055586;28;20098;-66
2021/07/14 08:24:08;;;;;;;14.50;3.60;;;31.80;64.30;;;;;;5069931;28;20077;-66
2021/07/14 08:26:35;;;;;;;16.48;4.10;;;31.70;64.80;;;;;;5070879;28;20108;-65
2021/07/14 08:29:02;;;;;;;10.73;3.90;;;31.70;65.00;;;;;;5070674;28;20134;-66
2021/07/14 08:31:28;;;;;;;18.02;4.10;;;31.60;65.40;;;;;;5067808;28;20077;-66
2021/07/14 08:33:56;;;;;;;15.48;3.70;;;31.50;65.70;;;;;;5070967;28;20160;-67
2021/07/14 08:36:24;;;;;;;14.75;4.75;;;31.50;66.00;;;;;;5071256;28;20073;-67
2021/07/14 08:38:50;;;;;;;18.08;4.10;;;31.50;65.90;;;;;;5069029;28;20457;-67
2021/07/14 08:41:20;;;;;;;9.95;3.78;;;31.30;99.90;;;;;;5069998;28;20080;-66
2021/07/14 08:43:49;;;;;;;13.80;4.03;;;31.40;99.90;;;;;;5069848;28;20602;-67
2021/07/14 08:46:16;;;;;;;20.90;4.35;;;31.40;66.60;;;;;;5074595;28;20085;-66
2021/07/14 08:48:45;;;;;;;13.15;3.45;;;31.50;66.50;;;;;;5074071;28;20101;-66
2021/07/14 08:51:13;;;;;;;12.50;3.92;;;31.40;66.80;;;;;;5074432;28;20088;-66
2021/07/14 08:53:40;;;;;;;10.88;3.67;;;31.40;67.10;;;;;;5074105;28;20085;-66
2021/07/14 08:56:07;;;;;;;12.55;4.25;;;31.30;66.80;;;;;;5062355;28;20081;-66
2021/07/14 08:58:33;;;;;;;12.15;3.97;;;31.30;66.90;;;;;;5074313;28;20068;-66
2021/07/14 09:01:01;;;;;;;13.32;3.92;;;31.30;67.40;;;;;;5074166;28;20073;-66
2021/07/14 09:03:28;;;;;;;14.48;4.55;;;31.30;67.60;;;;;;5074828;28;20081;-66
2021/07/14 09:05:55;;;;;;;18.85;4.03;;;31.20;67.60;;;;;;5072766;28;20117;-66
2021/07/14 09:08:22;;;;;;;13.82;4.07;;;31.30;67.90;;;;;;5073587;28;20434;-66
2021/07/14 09:10:50;;;;;;;15.02;4.20;;;31.30;68.10;;;;;;5073282;28;20069;-66
2021/07/14 09:13:17;;;;;;;11.80;3.65;;;31.20;68.40;;;;;;5072812;28;20092;-66
2021/07/14 09:15:50;;;;;;;15.02;3.97;;;31.30;68.30;;;;;;5073920;28;20152;-66
2021/07/14 09:18:21;;;;;;;15.45;4.30;;;31.20;68.40;;;;;;5072373;28;20069;-66
2021/07/14 09:20:48;;;;;;;14.02;3.35;;;31.20;68.70;;;;;;5073479;28;20534;-66
2021/07/14 09:23:17;;;;;;;14.20;3.65;;;31.10;71.70;;;;;;5072946;28;21039;-66
2021/07/14 09:26:02;;;;;;;11.60;3.50;;;31.00;69.30;;;;;;5073633;28;20176;-66
2021/07/14 09:28:34;;;;;;;12.63;3.55;;;31.10;69.30;;;;;;5072587;28;20454;-66
2021/07/14 09:31:06;;;;;;;16.90;4.38;;;31.20;69.40;;;;;;5072674;28;20552;-66
2021/07/14 09:33:33;;;;;;;14.05;3.58;;;31.10;69.60;;;;;;5073594;28;20101;-65
2021/07/14 09:36:00;;;;;;;9.15;3.08;;;31.20;70.00;;;;;;5074419;28;20081;-66
2021/07/14 09:38:31;;;;;;;14.07;3.72;;;31.20;70.10;;;;;;5071302;28;20115;-66
2021/07/14 09:41:04;;;;;;;16.63;4.22;;;31.10;70.50;;;;;;5072173;28;20069;-66
2021/07/14 09:43:38;;;;;;;13.60;3.80;;;31.10;70.90;;;;;;5073271;28;20081;-65
2021/07/14 09:46:10;;;;;;;16.33;3.55;;;31.00;71.40;;;;;;5068897;28;20534;-65
2021/07/14 09:48:41;;;;;;;12.48;3.53;;;31.10;71.60;;;;;;5060343;28;20103;-65
2021/07/14 09:51:11;;;;;;;16.85;3.67;;;30.90;72.30;;;;;;5071644;28;20077;-66
2021/07/14 09:53:40;;;;;;;11.48;3.70;;;31.00;72.70;;;;;;5072628;28;20073;-66
2021/07/14 09:56:20;;;;;;;13.25;3.67;;;31.00;72.70;;;;;;5073016;28;20073;-66
2021/07/14 09:58:47;;;;;;;12.02;3.70;;;31.00;72.90;;;;;;5071740;28;20604;-66
2021/07/14 10:01:16;;;;;;;16.10;4.38;;;31.00;73.20;;;;;;5073341;28;20133;-66
2021/07/14 10:03:51;;;;;;;15.65;4.38;;;31.10;73.30;;;;;;5071305;28;20077;-66
2021/07/14 10:06:24;;;;;;;13.10;4.22;;;31.00;73.80;;;;;;5071797;28;20532;-66
2021/07/14 10:08:51;;;;;;;11.15;3.47;;;31.00;74.20;;;;;;5072286;28;20109;-66
2021/07/14 10:11:19;;;;;;;13.32;4.78;;;31.00;74.30;;;;;;5072446;28;20073;-66
2021/07/14 10:14:05;;;;;;;11.20;3.88;;;31.00;74.80;;;;;;5072338;28;20172;-66
2021/07/14 10:16:32;;;;;;;13.07;4.45;;;30.90;75.00;;;;;;5072033;28;20061;-66
2021/07/14 10:19:08;;;;;;;16.95;4.70;;;31.00;75.00;;;;;;5072685;28;20065;-66
2021/07/14 10:21:44;;;;;;;12.73;4.70;;;31.00;75.20;;;;;;5071333;28;20072;-66
2021/07/14 10:24:13;;;;;;;16.17;5.00;;;30.90;75.30;;;;;;5072871;28;20298;-66
2021/07/14 10:26:44;;;;;;;17.17;5.78;;;31.00;75.30;;;;;;5072829;28;20445;-66
2021/07/14 10:29:11;;;;;;;15.05;5.13;;;30.90;76.50;;;;;;5072051;28;20549;-65
2021/07/14 10:31:39;;;;;;;19.70;5.22;;;30.80;76.80;;;;;;5072261;28;20081;-66
2021/07/14 10:34:08;;;;;;;15.82;4.80;;;30.80;76.60;;;;;;5070671;28;20089;-66
2021/07/14 10:36:36;;;;;;;16.98;4.82;;;30.80;76.70;;;;;;5073223;28;20152;-66
2021/07/14 10:39:06;;;;;;;16.65;4.68;;;30.70;77.50;;;;;;5072405;28;20089;-66
2021/07/14 10:41:33;;;;;;;16.60;4.82;;;30.80;77.70;;;;;;5071919;28;20653;-66
2021/07/14 10:44:01;;;;;;;12.57;4.22;;;30.80;77.50;;;;;;5072091;28;20085;-66
2021/07/14 10:46:30;;;;;;;13.13;4.38;;;30.70;78.10;;;;;;5072109;28;20080;-66
2021/07/14 10:48:58;;;;;;;12.90;3.50;;;30.70;78.50;;;;;;5070931;28;20097;-65
2021/07/14 10:51:27;;;;;;;15.18;4.15;;;30.70;78.80;;;;;;5070799;28;20073;-66
2021/07/14 10:54:02;;;;;;;14.70;4.25;;;30.60;79.30;;;;;;5071576;28;20115;-65
2021/07/14 10:56:35;;;;;;;13.23;5.10;;;30.60;79.50;;;;;;5072380;28;20083;-65
2021/07/14 10:59:05;;;;;;;15.27;4.13;;;30.60;79.90;;;;;;5071132;28;20134;-66
2021/07/14 11:01:50;;;;;;;18.77;4.10;;;30.60;80.60;;;;;;5072208;28;20077;-66
2021/07/14 11:04:28;;;;;;;13.73;3.97;;;30.60;81.40;;;;;;5069895;28;20081;-66
2021/07/14 11:06:56;;;;;;;13.90;4.15;;;30.60;82.20;;;;;;5070940;28;20279;-66
2021/07/14 11:09:37;;;;;;;23.50;4.28;;;30.60;82.40;;;;;;5071298;28;20242;-66
2021/07/14 11:12:13;;;;;;;17.98;4.75;;;30.50;83.30;;;;;;5070602;28;20667;-65
2021/07/14 11:14:50;;;;;;;14.43;4.22;;;30.50;84.50;;;;;;5053960;28;20102;-66
2021/07/14 11:17:27;;;;;;;15.50;4.07;;;30.50;85.30;;;;;;5071750;28;20092;-65
2021/07/14 11:19:54;;;;;;;15.93;4.53;;;30.40;86.20;;;;;;5069301;28;20091;-65
2021/07/14 11:22:40;;;;;;;13.77;4.57;;;30.50;87.00;;;;;;5071583;28;20526;-65
2021/07/14 11:25:24;;;;;;;13.43;4.10;;;30.50;87.60;;;;;;5070248;28;20069;-66
2021/07/14 11:27:59;;;;;;;16.02;4.57;;;30.50;88.50;;;;;;5070660;28;20203;-65
2021/07/14 11:30:34;;;;;;;17.45;4.53;;;30.50;89.80;;;;;;5070478;28;20160;-65
2021/07/14 11:33:01;;;;;;;13.93;4.38;;;30.40;90.20;;;;;;5071419;28;20068;-65
2021/07/14 11:35:52;;;;;;;14.93;4.38;;;30.50;90.30;;;;;;5072240;28;20488;-66
2021/07/14 11:38:22;;;;;;;18.30;4.00;;;30.50;90.70;;;;;;5069942;28;20541;-66
2021/07/14 11:41:02;;;;;;;11.88;3.45;;;30.50;91.00;;;;;;5070183;28;20089;-66
2021/07/14 11:43:39;;;;;;;15.27;4.15;;;30.60;91.10;;;;;;5070234;28;20069;-65
2021/07/14 11:46:11;;;;;;;11.60;3.78;;;30.40;99.90;;;;;;5070807;28;20075;-65
2021/07/14 11:48:40;;;;;;;10.63;3.53;;;30.50;91.30;;;;;;5068339;28;20108;-65
2021/07/14 11:51:24;;;;;;;15.85;3.97;;;30.40;91.40;;;;;;5069971;28;20073;-66
2021/07/14 11:53:59;;;;;;;15.18;4.45;;;30.40;91.50;;;;;;5069568;28;20109;-66
2021/07/14 11:56:39;;;;;;;12.02;3.78;;;30.40;91.50;;;;;;5070748;28;20093;-66
2021/07/14 11:59:11;;;;;;;12.07;4.13;;;30.30;91.50;;;;;;5070641;28;20158;-64
2021/07/14 12:01:56;;;;;;;21.73;4.15;;;30.40;91.50;;;;;;5070692;28;20081;-65
2021/07/14 12:04:24;;;;;;;13.20;3.72;;;30.40;91.40;;;;;;5070324;28;20105;-65
2021/07/14 12:07:12;;;;;;;11.10;3.75;;;30.30;91.50;;;;;;5070454;28;20544;-65
2021/07/14 12:09:46;;;;;;;13.55;3.85;;;30.30;91.60;;;;;;5069279;28;20107;-65
2021/07/14 12:12:17;;;;;;;10.38;4.00;;;30.20;91.70;;;;;;5070425;28;20164;-66
2021/07/14 12:14:46;;;;;;;14.70;4.55;;;30.20;91.80;;;;;;5070558;28;21337;-66
2021/07/14 12:17:17;;;;;;;14.27;4.57;;;30.20;91.80;;;;;;5071162;28;20427;-65
2021/07/14 12:19:45;;;;;;;13.98;4.22;;;30.10;91.80;;;;;;5069459;28;20500;-65
2021/07/14 12:22:21;;;;;;;16.45;3.95;;;30.10;91.90;;;;;;5069501;28;20434;-65
2021/07/14 12:24:56;;;;;;;10.82;3.75;;;30.10;99.90;;;;;;5070039;28;20087;-65
2021/07/14 12:27:27;;;;;;;13.65;4.10;;;30.00;91.90;;;;;;5071209;28;20112;-65
2021/07/14 12:30:10;;;;;;;12.43;3.58;;;30.10;91.80;;;;;;5068954;28;20217;-65
2021/07/14 12:32:36;;;;;;;13.32;4.10;;;30.10;91.50;;;;;;5070508;28;20069;-66
2021/07/14 12:35:11;;;;;;;16.05;4.30;;;30.00;91.40;;;;;;5069594;28;20069;-65
2021/07/14 12:37:51;;;;;;;17.33;3.97;;;29.90;91.50;;;;;;5069925;28;20510;-66
2021/07/14 12:40:27;;;;;;;19.17;4.05;;;30.00;91.40;;;;;;5068553;28;20116;-65
2021/07/14 12:42:56;;;;;;;13.65;3.92;;;29.90;91.40;;;;;;5069212;28;20445;-65
2021/07/14 12:45:28;;;;;;;14.82;3.60;;;29.90;91.40;;;;;;5069164;28;20073;-65
2021/07/14 12:47:55;;;;;;;15.30;4.13;;;29.90;91.20;;;;;;5068255;28;20143;-65
2021/07/14 12:50:24;;;;;;;11.57;3.13;;;29.90;91.30;;;;;;5069327;28;20449;-66
2021/07/14 12:52:52;;;;;;;16.58;3.90;;;29.90;91.30;;;;;;5069707;28;20476;-65
2021/07/14 12:55:20;;;;;;;18.13;4.20;;;29.90;91.20;;;;;;5070756;28;20476;-65
2021/07/14 12:57:48;;;;;;;17.83;4.22;;;30.00;91.10;;;;;;5069946;28;20073;-66
2021/07/14 13:00:18;;;;;;;15.35;4.43;;;30.00;91.00;;;;;;5069295;28;20073;-66
2021/07/14 13:03:01;;;;;;;13.07;3.47;;;29.90;90.80;;;;;;5069842;28;20109;-66